Pateros, WA (98846)

6:53 PM PDT on October 01, 2014 (GMT -0700)
Omak | Change Station
CLOSE
Current Station
Airport
Location: Omak,
Elevation: 1302 ft
Nearby Weather Stations

Elev 1302 ft 48.46 °N, 119.52 °W | Updated 1 hour ago

Partly Cloudy
Partly Cloudy
68 °F
Feels Like 68 °F
N
13
Wind Variable Wind from South
Gusts 21 mph

Today
High -- | Low -- °F
--% Chance of Precip.
Yesterday
High -- | Low -- °F
Precip. -- in
6:58 AM 6:38 PM
First Quarter, 53% visible
Pressure 29.96 in
Visibility 10.0 miles
Clouds Clear
Dew Point 36 °F
Humidity 31%
Rainfall 0.00 in
Snow Depth 0 in , 0 in , 0 in
UV 0 out of 12
Pollen 1.90 out of 12
Air Quality Not available.
Flu Activity Not available.
METAR KOMK 020053Z AUTO 18011G18KT 10SM CLR 20/02 A2995 RMK AO2 SLP145 T02000022

More Conditions Fewer Conditions

Pressure 29.96 in
Visibility 10.0 miles
Clouds Clear
Dew Point 36 °F
Humidity 31%
Rainfall 0.00 in
Snow Depth 0 in , 0 in , 0 in
UV 0 out of 12
Pollen 1.90 out of 12
Air Quality Not available.
Flu Activity Not available.
METAR KOMK 020053Z AUTO 18011G18KT 10SM CLR 20/02 A2995 RMK AO2 SLP145 T02000022

More Conditions Fewer Conditions

10-Day Weather Forecast

Almanac

Astronomy

Oct. 01, 2014 Rise Set
Actual Time 6:58 AM PDT 6:38 PM PDT
Civil Twilight 6:27 AM PDT 7:09 PM PDT
Nautical Twilight 5:51 AM PDT 7:45 PM PDT
Astronomical Twilight 5:14 AM PDT 8:22 PM PDT
Moon 2:23 PM PDT (10/1) 11:56 PM PDT (10/1)
Length of Visible Light 12h 41m
Length of Day
11h 39m
Tomorrow will be 3m 30s shorter.
First Quarter, 53% of the Moon is Illuminated
Today
First Quarter
Oct 8
Full
Oct 15
Last Quarter
Oct 23
New
Oct 30
First Quarter

Today's Extremes

State Highs State Lows

Community

WunderPhotos

Upload Photos

1,758,118 photos uploaded!

WunderBlogs® & News

Nearby

Snow Depth

Station Depth Elevation
Bunchgrass Meadow 0 in 5000 ft
Grouse Camp 0 in 5380 ft
Rainy Pass 0 in 4780 ft
Surprise Lakes 1 in 4250 ft
Trough 0 in 5300 ft

Earthquake Activity

City Distance Mag. Time & Date
No recent earthquake activity has been reported nearby.
Minimum magnitude displayed is 2.5.

Coastal Water Temperatures

Place Temperature
No Stations Reporting

Nearby Weather Stations